Chitina, AK

11:50 PM AKST on February 07, 2016 (GMT -0900)
RAWS | | Change Station
CLOSE
Current Station
Personal Weather Station
Location: Chitina, AK
Elevation: 4060 ft
Nearby Weather Stations

Elev 4060 ft 61.60 °N, 143.01 °W | Updated 1 day ago

Snow
Snow
9 °F
Feels Like -0 °F
N
5
Wind Variable Wind from East
Gusts mph

Today
High -- | Low -- °F
--% Chance of Precip.
Yesterday
High -- | Low -- °F
Precip. -- in
Pressure 30.03 in
Visibility 10.0 miles
Clouds Clear
Windchill -0 °F
Dew Point 6 °F
Humidity 90%
Rainfall in
Snow Depth Not available.
8:39 AM 4:53 PM
Waning Crescent, 0% visible
METAR PAGK 080753Z AUTO 35006KT 10SM CLR M14/M16 A2986 RMK AO2 SLP169 T11391161 TSNO $
Pressure 30.03 in
Visibility 10.0 miles
Clouds Clear
Windchill -0 °F
Dew Point 6 °F
Humidity 90%
Rainfall in
Snow Depth Not available.
8:39 AM 4:53 PM
Waning Crescent, 0% visible
METAR PAGK 080753Z AUTO 35006KT 10SM CLR M14/M16 A2986 RMK AO2 SLP169 T11391161 TSNO $

10-Day Weather Forecast

Almanac

Astronomy

Feb. 07, 2016 Rise Set
Actual Time
Civil Twilight
Nautical Twilight
Astronomical Twilight
Moon
Length of Visible Light
Length of Day
Tomorrow will be .
, % of the Moon is Illuminated

Today's Extremes

State Highs State Lows

Community

WunderPhotos

Upload Photos

1,891,412 photos uploaded!

WunderBlog® & News

Nearby

Air Quality

  Air Quality AQ Index Pollutant
Not available.

Snow Depth

Station Depth Elevation

Earthquake Activity

City Distance Mag. Time & Date
Minimum magnitude displayed is 2.5.

Coastal Water Temperatures

Place Temperature

Stations

Nearby Weather Stations

Station Location Temp. Windchill Dew Point Humidity Wind Precip. Elev Updated Type
                   

Watches & Warnings

There are currently no watches in effect.